Karla A — TCCR8 — position and weather

sailwx.info

Track history (hours):
 
Tides and Currents Weather Stations Pressure Air Temp Water Temp Dewpoint Dewpoint Depression Visibility Wind Speed Wind Dir Waves Ship Positions

Karla A

Last reported at 2018-Feb-19 10:59 UTC. Time now 2018-Feb-20 17:46 UTC.
Position N 39°49' E 018°55'.

Length 155 m; draft 7.7 m.

Type: Ship (hazmat cat A). MMSI: 271000744.

Date/timePositionNaut miles runAvg speedWind from/ knotsBaromVisibWave heightAir tempDewpointWater temp
2018-Feb-19 10:59N 39°49' E 018°55'715.1
2018-Feb-19 10:30N 39°55' E 018°51'377 9.1
2018-Feb-17 16:54N 44°31' E 013°03'816.6
2018-Feb-17 16:24N 44°39' E 012°60'716.6
2018-Feb-17 15:59N 44°46' E 012°57'1816.6
2018-Feb-17 14:54N 45°02' E 012°46'616.2
2018-Feb-17 14:30N 45°07' E 012°40'816.5
2018-Feb-17 14:00N 45°12' E 012°31'816.2
2018-Feb-17 13:30N 45°19' E 012°24'611.6
2018-Feb-17 13:00N 45°21' E 012°16'5 9.1
2018-Feb-17 12:30N 45°25' E 012°16'2 4.0
2018-Feb-17 11:59N 45°27' E 012°15'0 0.0
2018-Feb-17 11:29N 45°27' E 012°15'0 0.0
2018-Feb-17 10:59N 45°27' E 012°15'0 0.0
2018-Feb-17 10:29N 45°27' E 012°15'0 0.0
2018-Feb-17 09:58N 45°27' E 012°15'0 0.0
2018-Feb-17 09:28N 45°27' E 012°15'0 0.0
2018-Feb-17 08:58N 45°27' E 012°15'0 0.0
2018-Feb-17 08:28N 45°27' E 012°15'0 0.0
2018-Feb-17 07:58N 45°27' E 012°15'0 0.0
2018-Feb-17 07:30N 45°27' E 012°15'0 0.0
2018-Feb-17 07:00N 45°27' E 012°15'0 0.0
2018-Feb-17 06:30N 45°27' E 012°15'0 0.0
2018-Feb-17 06:00N 45°27' E 012°15'0 0.0
2018-Feb-17 05:30N 45°27' E 012°15'0 0.0
2018-Feb-17 04:59N 45°27' E 012°15'0 0.0
2018-Feb-17 04:29N 45°27' E 012°15'0 0.0
2018-Feb-17 03:59N 45°27' E 012°15'0 0.0
2018-Feb-17 03:29N 45°27' E 012°15'0 0.0
2018-Feb-17 02:58N 45°27' E 012°15'0 0.0
2018-Feb-17 02:28N 45°27' E 012°15'0 0.0
2018-Feb-17 01:58N 45°27' E 012°15'0 0.0
2018-Feb-17 01:28N 45°27' E 012°15'0 0.0
2018-Feb-17 00:57N 45°27' E 012°15'0 0.0
2018-Feb-17 00:27N 45°27' E 012°15'0 0.0
2018-Feb-17 00:00N 45°27' E 012°15'0 0.0
2018-Feb-16 23:30N 45°27' E 012°15'0 0.0
2018-Feb-16 23:00N 45°27' E 012°15'0 0.0
2018-Feb-16 22:29N 45°27' E 012°15'0 0.0
2018-Feb-16 21:59N 45°27' E 012°15'0 0.0
2018-Feb-16 21:29N 45°27' E 012°15'0 0.0
2018-Feb-16 20:59N 45°27' E 012°15'0 0.0
2018-Feb-16 20:26N 45°27' E 012°15'0 0.0
2018-Feb-16 19:58N 45°27' E 012°15'0 0.0
2018-Feb-16 19:28N 45°27' E 012°15'0 0.0
2018-Feb-16 18:58N 45°27' E 012°15'0 0.0
2018-Feb-16 18:28N 45°27' E 012°15'0 0.0
2018-Feb-16 18:00N 45°27' E 012°15'0 0.0
2018-Feb-16 17:30N 45°27' E 012°15'0 0.0
2018-Feb-16 17:00N 45°27' E 012°15'0 0.0
2018-Feb-16 16:24N 45°27' E 012°15'0 0.0
2018-Feb-16 16:00N 45°27' E 012°15'0 0.0
2018-Feb-16 15:29N 45°27' E 012°15'0 0.0
2018-Feb-16 14:59N 45°27' E 012°15'0 0.3
2018-Feb-16 14:31N 45°27' E 012°16'3 6.5
2018-Feb-16 14:00N 45°24' E 012°16'5 8.9
2018-Feb-16 13:30N 45°20' E 012°19'3 7.0
2018-Feb-16 13:00N 45°19' E 012°24'3 5.5
2018-Feb-16 12:30N 45°18' E 012°27'612.6
2018-Feb-16 12:00N 45°19' E 012°36'714.9
2018-Feb-16 11:31N 45°22' E 012°46'918.0
2018-Feb-16 11:00N 45°26' E 012°57'918.2
2018-Feb-16 10:30N 45°30' E 013°09'918.0
2018-Feb-16 10:00N 45°34' E 013°21'918.0
2018-Feb-16 09:30N 45°37' E 013°32'612.4
2018-Feb-16 09:00N 45°35' E 013°40'3 5.6
2018-Feb-16 08:29N 45°33' E 013°44'0 0.1
2018-Feb-16 07:59N 45°33' E 013°44'0 0.0
2018-Feb-16 07:29N 45°33' E 013°44'0 0.0
2018-Feb-16 06:59N 45°33' E 013°44'0 0.0
2018-Feb-16 06:29N 45°33' E 013°44'0 0.0
2018-Feb-16 05:57N 45°33' E 013°44'0 0.0
2018-Feb-16 05:30N 45°33' E 013°44'0 0.0
2018-Feb-16 04:54N 45°33' E 013°44'0 0.0
2018-Feb-16 04:30N 45°33' E 013°44'0 0.0
2018-Feb-16 03:57N 45°33' E 013°44'0 0.0
2018-Feb-16 03:26N 45°33' E 013°44'0 0.0
2018-Feb-16 02:59N 45°33' E 013°44'0 0.0
2018-Feb-16 02:29N 45°33' E 013°44'0 0.0
2018-Feb-16 01:59N 45°33' E 013°44'0 0.0
2018-Feb-16 01:29N 45°33' E 013°44'0 0.0
2018-Feb-16 00:58N 45°33' E 013°44'0 0.0
2018-Feb-16 00:28N 45°33' E 013°44'0 0.0
2018-Feb-15 23:58N 45°33' E 013°44'0 0.0
2018-Feb-15 23:16N 45°33' E 013°44'0 0.0
2018-Feb-15 22:57N 45°33' E 013°44'0 0.0
2018-Feb-15 22:30N 45°33' E 013°44'2 3.5
2018-Feb-15 22:00N 45°34' E 013°42'1 1.7
2018-Feb-15 21:30N 45°34' E 013°41'0 0.0
2018-Feb-15 21:00N 45°34' E 013°41'0 0.0
2018-Feb-15 20:29N 45°34' E 013°41'0 0.0
2018-Feb-15 19:59N 45°34' E 013°41'0 0.0
2018-Feb-15 19:29N 45°34' E 013°41'0 0.0
2018-Feb-15 18:59N 45°34' E 013°41'0 0.0
2018-Feb-15 18:29N 45°34' E 013°41'0 0.0
2018-Feb-15 17:58N 45°34' E 013°41'0 0.0
2018-Feb-15 17:25N 45°34' E 013°41'0 0.0
2018-Feb-15 16:58N 45°34' E 013°41'0 0.0
2018-Feb-15 16:30N 45°34' E 013°41'0 0.1
2018-Feb-15 16:00N 45°34' E 013°41'4 8.2
2018-Feb-15 15:30N 45°35' E 013°35'714.1
2018-Feb-15 15:00N 45°32' E 013°26'714.4
2018-Feb-15 14:30N 45°28' E 013°18'713.3
2018-Feb-15 14:00N 45°22' E 013°12'714.6
2018-Feb-15 13:30N 45°15' E 013°12'714.0
2018-Feb-15 13:00N 45°09' E 013°16'714.0
2018-Feb-15 12:30N 45°02' E 013°19'714.0
2018-Feb-15 12:00N 44°56' E 013°24'713.9
2018-Feb-15 11:30N 44°50' E 013°30'713.8
2018-Feb-15 11:00N 44°44' E 013°34'713.5
2018-Feb-15 10:30N 44°38' E 013°39'  
Track history (hours):
 
Tides and Currents Weather Stations Pressure Air Temp Water Temp Dewpoint Dewpoint Depression Visibility Wind Speed Wind Dir Waves Ship Positions

Karla A

Last reported at 2018-Feb-19 10:59 UTC. Time now 2018-Feb-20 17:46 UTC.
Position N 39°49' E 018°55'.

Length 155 m; draft 7.7 m.

Type: Ship (hazmat cat A). MMSI: 271000744.

Date/timePositionNaut miles runAvg speedWind from/ knotsBaromVisibWave heightAir tempDewpointWater temp
2018-Feb-19 10:59N 39°49' E 018°55'715.1
2018-Feb-19 10:30N 39°55' E 018°51'377 9.1
2018-Feb-17 16:54N 44°31' E 013°03'816.6
2018-Feb-17 16:24N 44°39' E 012°60'716.6
2018-Feb-17 15:59N 44°46' E 012°57'1816.6
2018-Feb-17 14:54N 45°02' E 012°46'616.2
2018-Feb-17 14:30N 45°07' E 012°40'816.5
2018-Feb-17 14:00N 45°12' E 012°31'816.2
2018-Feb-17 13:30N 45°19' E 012°24'611.6
2018-Feb-17 13:00N 45°21' E 012°16'5 9.1
2018-Feb-17 12:30N 45°25' E 012°16'2 4.0
2018-Feb-17 11:59N 45°27' E 012°15'0 0.0
2018-Feb-17 11:29N 45°27' E 012°15'0 0.0
2018-Feb-17 10:59N 45°27' E 012°15'0 0.0
2018-Feb-17 10:29N 45°27' E 012°15'0 0.0
2018-Feb-17 09:58N 45°27' E 012°15'0 0.0
2018-Feb-17 09:28N 45°27' E 012°15'0 0.0
2018-Feb-17 08:58N 45°27' E 012°15'0 0.0
2018-Feb-17 08:28N 45°27' E 012°15'0 0.0
2018-Feb-17 07:58N 45°27' E 012°15'0 0.0
2018-Feb-17 07:30N 45°27' E 012°15'0 0.0
2018-Feb-17 07:00N 45°27' E 012°15'0 0.0
2018-Feb-17 06:30N 45°27' E 012°15'0 0.0
2018-Feb-17 06:00N 45°27' E 012°15'0 0.0
2018-Feb-17 05:30N 45°27' E 012°15'0 0.0
2018-Feb-17 04:59N 45°27' E 012°15'0 0.0
2018-Feb-17 04:29N 45°27' E 012°15'0 0.0
2018-Feb-17 03:59N 45°27' E 012°15'0 0.0
2018-Feb-17 03:29N 45°27' E 012°15'0 0.0
2018-Feb-17 02:58N 45°27' E 012°15'0 0.0
2018-Feb-17 02:28N 45°27' E 012°15'0 0.0
2018-Feb-17 01:58N 45°27' E 012°15'0 0.0
2018-Feb-17 01:28N 45°27' E 012°15'0 0.0
2018-Feb-17 00:57N 45°27' E 012°15'0 0.0
2018-Feb-17 00:27N 45°27' E 012°15'0 0.0
2018-Feb-17 00:00N 45°27' E 012°15'0 0.0
2018-Feb-16 23:30N 45°27' E 012°15'0 0.0
2018-Feb-16 23:00N 45°27' E 012°15'0 0.0
2018-Feb-16 22:29N 45°27' E 012°15'0 0.0
2018-Feb-16 21:59N 45°27' E 012°15'0 0.0
2018-Feb-16 21:29N 45°27' E 012°15'0 0.0
2018-Feb-16 20:59N 45°27' E 012°15'0 0.0
2018-Feb-16 20:26N 45°27' E 012°15'0 0.0
2018-Feb-16 19:58N 45°27' E 012°15'0 0.0
2018-Feb-16 19:28N 45°27' E 012°15'0 0.0
2018-Feb-16 18:58N 45°27' E 012°15'0 0.0
2018-Feb-16 18:28N 45°27' E 012°15'0 0.0
2018-Feb-16 18:00N 45°27' E 012°15'0 0.0
2018-Feb-16 17:30N 45°27' E 012°15'0 0.0
2018-Feb-16 17:00N 45°27' E 012°15'0 0.0
2018-Feb-16 16:24N 45°27' E 012°15'0 0.0
2018-Feb-16 16:00N 45°27' E 012°15'0 0.0
2018-Feb-16 15:29N 45°27' E 012°15'0 0.0
2018-Feb-16 14:59N 45°27' E 012°15'0 0.3
2018-Feb-16 14:31N 45°27' E 012°16'3 6.5
2018-Feb-16 14:00N 45°24' E 012°16'5 8.9
2018-Feb-16 13:30N 45°20' E 012°19'3 7.0
2018-Feb-16 13:00N 45°19' E 012°24'3 5.5
2018-Feb-16 12:30N 45°18' E 012°27'612.6
2018-Feb-16 12:00N 45°19' E 012°36'714.9
2018-Feb-16 11:31N 45°22' E 012°46'918.0
2018-Feb-16 11:00N 45°26' E 012°57'918.2
2018-Feb-16 10:30N 45°30' E 013°09'918.0
2018-Feb-16 10:00N 45°34' E 013°21'918.0
2018-Feb-16 09:30N 45°37' E 013°32'612.4
2018-Feb-16 09:00N 45°35' E 013°40'3 5.6
2018-Feb-16 08:29N 45°33' E 013°44'0 0.1
2018-Feb-16 07:59N 45°33' E 013°44'0 0.0
2018-Feb-16 07:29N 45°33' E 013°44'0 0.0
2018-Feb-16 06:59N 45°33' E 013°44'0 0.0
2018-Feb-16 06:29N 45°33' E 013°44'0 0.0
2018-Feb-16 05:57N 45°33' E 013°44'0 0.0
2018-Feb-16 05:30N 45°33' E 013°44'0 0.0
2018-Feb-16 04:54N 45°33' E 013°44'0 0.0
2018-Feb-16 04:30N 45°33' E 013°44'0 0.0
2018-Feb-16 03:57N 45°33' E 013°44'0 0.0
2018-Feb-16 03:26N 45°33' E 013°44'0 0.0
2018-Feb-16 02:59N 45°33' E 013°44'0 0.0
2018-Feb-16 02:29N 45°33' E 013°44'0 0.0
2018-Feb-16 01:59N 45°33' E 013°44'0 0.0
2018-Feb-16 01:29N 45°33' E 013°44'0 0.0
2018-Feb-16 00:58N 45°33' E 013°44'0 0.0
2018-Feb-16 00:28N 45°33' E 013°44'0 0.0
2018-Feb-15 23:58N 45°33' E 013°44'0 0.0
2018-Feb-15 23:16N 45°33' E 013°44'0 0.0
2018-Feb-15 22:57N 45°33' E 013°44'0 0.0
2018-Feb-15 22:30N 45°33' E 013°44'2 3.5
2018-Feb-15 22:00N 45°34' E 013°42'1 1.7
2018-Feb-15 21:30N 45°34' E 013°41'0 0.0
2018-Feb-15 21:00N 45°34' E 013°41'0 0.0
2018-Feb-15 20:29N 45°34' E 013°41'0 0.0
2018-Feb-15 19:59N 45°34' E 013°41'0 0.0
2018-Feb-15 19:29N 45°34' E 013°41'0 0.0
2018-Feb-15 18:59N 45°34' E 013°41'0 0.0
2018-Feb-15 18:29N 45°34' E 013°41'0 0.0
2018-Feb-15 17:58N 45°34' E 013°41'0 0.0
2018-Feb-15 17:25N 45°34' E 013°41'0 0.0
2018-Feb-15 16:58N 45°34' E 013°41'0 0.0
2018-Feb-15 16:30N 45°34' E 013°41'0 0.1
2018-Feb-15 16:00N 45°34' E 013°41'4 8.2
2018-Feb-15 15:30N 45°35' E 013°35'714.1
2018-Feb-15 15:00N 45°32' E 013°26'714.4
2018-Feb-15 14:30N 45°28' E 013°18'713.3
2018-Feb-15 14:00N 45°22' E 013°12'714.6
2018-Feb-15 13:30N 45°15' E 013°12'714.0
2018-Feb-15 13:00N 45°09' E 013°16'714.0
2018-Feb-15 12:30N 45°02' E 013°19'714.0
2018-Feb-15 12:00N 44°56' E 013°24'713.9
2018-Feb-15 11:30N 44°50' E 013°30'713.8
2018-Feb-15 11:00N 44°44' E 013°34'713.5
2018-Feb-15 10:30N 44°38' E 013°39'  

Dump ship's entire track history